createdAt,value
2023-03-07T00:00:51.413Z,36.90
2023-03-07T00:03:20.794Z,36.20
2023-03-07T00:05:50.278Z,37.43
2023-03-07T00:08:18.460Z,38.40
2023-03-07T00:10:46.606Z,36.80
2023-03-07T00:13:14.672Z,38.17
2023-03-07T00:15:42.769Z,36.83
2023-03-07T00:18:10.767Z,39.30
2023-03-07T00:20:38.795Z,37.47
2023-03-07T00:23:08.487Z,37.50
2023-03-07T00:25:36.832Z,42.87
2023-03-07T00:28:04.910Z,40.57
2023-03-07T00:30:32.919Z,38.77
2023-03-07T00:33:01.010Z,38.83
2023-03-07T00:35:29.029Z,43.17
2023-03-07T00:37:57.017Z,43.57
2023-03-07T00:40:26.589Z,41.47
2023-03-07T00:42:54.783Z,42.07
2023-03-07T00:45:22.940Z,41.47
2023-03-07T00:47:51.035Z,44.20
2023-03-07T00:50:19.351Z,44.43
2023-03-07T00:52:47.637Z,42.00
2023-03-07T00:55:15.923Z,43.93
2023-03-07T00:57:45.406Z,41.27
2023-03-07T01:00:14.224Z,42.43
2023-03-07T01:02:42.462Z,45.00
2023-03-07T01:05:11.092Z,49.27
2023-03-07T01:07:39.150Z,45.70
2023-03-07T01:10:08.032Z,51.13
2023-03-07T01:12:36.726Z,47.33
2023-03-07T01:15:08.007Z,45.83
2023-03-07T01:17:36.105Z,44.77
2023-03-07T01:20:07.156Z,46.40
2023-03-07T01:22:35.274Z,46.83
2023-03-07T01:25:03.942Z,45.10
2023-03-07T01:27:32.005Z,44.07
2023-03-07T01:30:00.450Z,43.67
2023-03-07T01:32:30.004Z,42.63
2023-03-07T01:34:58.392Z,42.03
2023-03-07T01:37:27.168Z,42.87
2023-03-07T01:39:55.705Z,41.97
2023-03-07T01:42:23.846Z,42.90
2023-03-07T01:45:04.659Z,41.47
2023-03-07T01:47:35.618Z,41.70
2023-03-07T01:50:07.300Z,44.13
2023-03-07T01:52:39.469Z,41.77
2023-03-07T01:55:12.774Z,42.97
2023-03-07T01:57:44.227Z,44.57
2023-03-07T02:00:18.881Z,44.80
2023-03-07T02:02:58.731Z,42.13
2023-03-07T02:05:32.685Z,43.27
2023-03-07T02:08:03.309Z,41.47
2023-03-07T02:10:34.048Z,40.47
2023-03-07T02:13:02.223Z,40.97
2023-03-07T02:15:30.388Z,42.13
2023-03-07T02:18:00.500Z,41.17
2023-03-07T02:20:36.583Z,41.80
2023-03-07T02:23:06.069Z,39.30
2023-03-07T02:25:42.220Z,40.70
2023-03-07T02:28:14.856Z,43.40
2023-03-07T02:30:55.072Z,41.10
2023-03-07T02:33:25.124Z,39.87
2023-03-07T02:35:57.909Z,39.67
2023-03-07T02:38:26.769Z,39.87
2023-03-07T02:40:56.399Z,39.13
2023-03-07T02:43:26.415Z,39.67
2023-03-07T02:45:55.916Z,39.23
2023-03-07T02:48:24.180Z,34.93
2023-03-07T02:50:52.448Z,33.40
2023-03-07T02:53:20.589Z,34.17
2023-03-07T02:55:48.760Z,34.43
2023-03-07T02:58:16.812Z,35.90
2023-03-07T03:00:46.400Z,34.50
2023-03-07T03:03:14.491Z,31.40
2023-03-07T03:05:42.552Z,31.33
2023-03-07T03:08:10.794Z,31.83
2023-03-07T03:10:38.914Z,28.03
2023-03-07T03:13:07.544Z,33.70
2023-03-07T03:15:35.862Z,32.67
2023-03-07T03:18:05.977Z,31.13
2023-03-07T03:20:34.207Z,32.00
2023-03-07T03:23:02.342Z,28.90
2023-03-07T03:25:30.379Z,31.17
2023-03-07T03:27:58.478Z,28.63
2023-03-07T03:30:26.886Z,27.43
2023-03-07T03:32:56.525Z,27.20
2023-03-07T03:35:25.922Z,27.30
2023-03-07T03:37:53.990Z,28.13
2023-03-07T03:40:22.293Z,29.77
2023-03-07T03:42:51.109Z,25.77
2023-03-07T03:45:19.718Z,26.10
2023-03-07T03:47:48.610Z,26.80
2023-03-07T03:50:16.776Z,26.80
2023-03-07T03:52:46.307Z,28.13
2023-03-07T03:55:14.639Z,26.17
2023-03-07T03:57:42.729Z,26.33
2023-03-07T04:00:14.911Z,22.87
2023-03-07T04:02:43.247Z,25.23
2023-03-07T04:05:11.703Z,25.77
2023-03-07T04:07:40.023Z,24.37
2023-03-07T04:10:11.116Z,22.53
2023-03-07T04:12:39.126Z,24.40
2023-03-07T04:15:08.533Z,25.77
2023-03-07T04:17:37.231Z,24.20
2023-03-07T04:20:06.712Z,23.93
2023-03-07T04:22:34.704Z,22.93
2023-03-07T04:25:04.278Z,29.87
2023-03-07T04:27:35.335Z,24.70
2023-03-07T04:30:03.496Z,26.57
2023-03-07T04:32:31.806Z,30.53
2023-03-07T04:34:59.940Z,27.30
2023-03-07T04:37:27.937Z,24.60
2023-03-07T04:39:55.972Z,26.10
2023-03-07T04:42:24.122Z,29.10
2023-03-07T04:44:53.871Z,31.37
2023-03-07T04:47:22.020Z,29.40
2023-03-07T04:49:50.055Z,30.10
2023-03-07T04:52:18.216Z,28.00
2023-03-07T04:54:46.252Z,28.87
2023-03-07T04:57:14.340Z,26.50
2023-03-07T04:59:42.396Z,26.80
2023-03-07T05:02:14.181Z,26.63
2023-03-07T05:04:42.374Z,27.57
2023-03-07T05:07:10.960Z,26.67
2023-03-07T05:09:39.248Z,25.10
2023-03-07T05:12:07.700Z,27.67
2023-03-07T05:14:35.851Z,24.47
2023-03-07T05:17:03.855Z,24.30
2023-03-07T05:19:33.251Z,24.07
2023-03-07T05:22:01.357Z,21.57
2023-03-07T05:24:29.342Z,22.07
2023-03-07T05:26:57.363Z,27.03
2023-03-07T05:29:25.401Z,22.10
2023-03-07T05:31:55.969Z,22.17
2023-03-07T05:34:24.046Z,18.23
2023-03-07T05:36:55.730Z,17.87
2023-03-07T05:39:24.177Z,17.20
2023-03-07T05:41:53.684Z,16.80
2023-03-07T05:44:21.972Z,10.93
2023-03-07T05:46:49.996Z,12.70
2023-03-07T05:49:18.080Z,13.17
2023-03-07T05:51:46.068Z,17.87
2023-03-07T05:54:15.459Z,25.60
2023-03-07T05:56:43.586Z,20.87
2023-03-07T05:59:22.898Z,24.53
2023-03-07T06:01:51.110Z,14.60
2023-03-07T06:04:28.515Z,14.93
2023-03-07T06:06:56.669Z,11.23
2023-03-07T06:09:26.115Z,10.80
2023-03-07T06:11:54.162Z,13.73
2023-03-07T06:14:22.342Z,14.17
2023-03-07T06:16:50.420Z,11.30
2023-03-07T06:19:18.709Z,12.53
2023-03-07T06:21:46.917Z,11.73
2023-03-07T06:24:15.095Z,13.07
2023-03-07T06:26:44.518Z,17.27
2023-03-07T06:29:16.115Z,17.23
2023-03-07T06:31:45.596Z,13.43
2023-03-07T06:34:15.251Z,14.93
2023-03-07T06:36:43.412Z,12.27
2023-03-07T06:39:15.179Z,15.60
2023-03-07T06:41:44.570Z,17.70
2023-03-07T06:44:13.851Z,16.50
2023-03-07T06:46:41.854Z,15.73
2023-03-07T06:49:13.312Z,22.00
2023-03-07T06:51:41.610Z,25.90
2023-03-07T06:54:09.754Z,21.53
2023-03-07T06:56:37.838Z,16.77
2023-03-07T06:59:07.529Z,23.00
2023-03-07T07:01:36.107Z,23.93
2023-03-07T07:04:04.198Z,24.60
2023-03-07T07:06:34.190Z,15.60
2023-03-07T07:09:02.227Z,25.03
2023-03-07T07:11:30.277Z,17.83
2023-03-07T07:13:58.641Z,25.93
2023-03-07T07:16:29.177Z,22.97
2023-03-07T07:18:57.193Z,21.33
2023-03-07T07:21:25.748Z,34.57
2023-03-07T07:23:53.831Z,23.67
2023-03-07T07:26:22.047Z,25.50
2023-03-07T07:28:50.128Z,18.07
2023-03-07T07:31:18.244Z,23.67
2023-03-07T07:33:51.960Z,16.27
2023-03-07T07:36:22.061Z,31.23
2023-03-07T07:38:50.910Z,21.63
2023-03-07T07:41:19.362Z,20.27
2023-03-07T07:43:48.479Z,22.37
2023-03-07T07:46:16.609Z,27.63
2023-03-07T07:48:49.066Z,21.10
2023-03-07T07:51:17.431Z,21.40
2023-03-07T07:53:47.798Z,21.10
2023-03-07T07:56:15.847Z,23.97
2023-03-07T07:58:46.887Z,24.90
2023-03-07T08:01:17.106Z,20.77
2023-03-07T08:03:47.003Z,23.77
2023-03-07T08:06:20.473Z,15.90
2023-03-07T08:08:49.273Z,22.03
2023-03-07T08:11:17.899Z,16.43
2023-03-07T08:13:46.122Z,15.07
2023-03-07T08:16:15.978Z,16.50
2023-03-07T08:18:44.886Z,14.77
2023-03-07T08:21:12.969Z,18.37
2023-03-07T08:23:42.274Z,20.57
2023-03-07T08:26:11.151Z,18.50
2023-03-07T08:28:41.473Z,17.97
2023-03-07T08:31:13.026Z,18.97
2023-03-07T08:33:41.387Z,19.47
2023-03-07T08:36:10.513Z,16.33
2023-03-07T08:38:40.629Z,16.33
2023-03-07T08:41:10.873Z,17.80
2023-03-07T08:43:40.365Z,20.07
2023-03-07T08:46:08.526Z,16.10
2023-03-07T08:48:36.637Z,22.33
2023-03-07T08:51:09.553Z,16.27
2023-03-07T08:53:38.873Z,20.83
2023-03-07T08:56:08.338Z,19.57
2023-03-07T08:58:38.155Z,19.60
2023-03-07T09:01:07.253Z,19.60
2023-03-07T09:03:36.172Z,20.43
2023-03-07T09:06:05.401Z,8.27
2023-03-07T09:08:33.440Z,20.07
2023-03-07T09:11:03.712Z,15.40
2023-03-07T09:13:35.946Z,20.00
2023-03-07T09:16:08.974Z,31.60
2023-03-07T09:18:37.829Z,24.27
2023-03-07T09:21:06.941Z,35.37
2023-03-07T09:23:35.029Z,34.70
2023-03-07T09:26:04.256Z,41.37
2023-03-07T09:28:32.395Z,23.10
2023-03-07T09:31:00.567Z,19.33
2023-03-07T09:33:29.940Z,21.67
2023-03-07T09:35:57.982Z,18.97
2023-03-07T09:38:26.060Z,14.27
2023-03-07T09:40:54.300Z,18.77
2023-03-07T09:43:23.768Z,18.27
2023-03-07T09:46:02.609Z,23.70
2023-03-07T09:48:55.657Z,23.37
2023-03-07T09:51:27.107Z,17.60
2023-03-07T09:53:58.755Z,19.00
2023-03-07T09:56:40.965Z,21.87
2023-03-07T09:59:22.729Z,19.87
2023-03-07T10:01:56.524Z,23.37
2023-03-07T10:04:33.366Z,20.30
2023-03-07T10:07:03.552Z,15.53
2023-03-07T10:09:31.738Z,9.37
2023-03-07T10:12:25.126Z,21.10
2023-03-07T10:15:09.566Z,21.83
2023-03-07T10:18:00.369Z,15.70
2023-03-07T10:20:40.356Z,24.47
2023-03-07T10:23:25.553Z,20.43
2023-03-07T10:25:57.970Z,26.23
2023-03-07T10:28:31.226Z,22.27
2023-03-07T10:31:03.317Z,40.40
2023-03-07T10:33:32.465Z,35.80
2023-03-07T10:36:08.120Z,26.50
2023-03-07T10:38:41.105Z,20.73
2023-03-07T10:41:15.817Z,30.50
2023-03-07T10:43:46.121Z,37.53
2023-03-07T10:46:25.172Z,24.10
2023-03-07T10:48:56.402Z,22.03
2023-03-07T10:51:52.801Z,23.17
2023-03-07T10:54:23.959Z,25.23
2023-03-07T10:57:10.429Z,22.17
2023-03-07T10:59:40.234Z,21.40
2023-03-07T11:02:30.137Z,18.73
2023-03-07T11:04:58.744Z,20.33
2023-03-07T11:07:31.288Z,18.40
2023-03-07T11:10:00.962Z,20.17
2023-03-07T11:12:32.108Z,23.77
2023-03-07T11:15:12.006Z,17.20
2023-03-07T11:17:43.632Z,20.63
2023-03-07T11:20:21.614Z,11.00
2023-03-07T11:22:52.169Z,18.83
2023-03-07T11:25:25.250Z,19.00
2023-03-07T11:27:56.073Z,15.97
2023-03-07T11:30:31.572Z,16.80
2023-03-07T11:33:11.568Z,14.03
2023-03-07T11:35:59.969Z,16.80
2023-03-07T11:38:46.838Z,16.93
2023-03-07T11:41:22.137Z,15.23
2023-03-07T11:44:01.517Z,17.70
2023-03-07T11:46:42.013Z,15.37
2023-03-07T11:49:25.586Z,11.37
2023-03-07T11:52:06.015Z,13.40
2023-03-07T11:54:44.090Z,14.70
2023-03-07T11:57:20.496Z,9.77
2023-03-07T12:00:21.085Z,11.30
2023-03-07T12:03:06.996Z,9.97
2023-03-07T12:05:43.658Z,13.83
2023-03-07T12:08:42.130Z,13.17
2023-03-07T12:11:21.866Z,12.83
2023-03-07T12:13:58.885Z,14.57
2023-03-07T12:16:32.014Z,8.93
2023-03-07T12:19:31.159Z,14.17
2023-03-07T12:22:13.418Z,11.23
2023-03-07T12:24:47.948Z,15.37
2023-03-07T12:27:25.006Z,15.17
2023-03-07T12:29:58.658Z,16.10
2023-03-07T12:32:28.603Z,14.27
2023-03-07T12:35:02.557Z,9.27
2023-03-07T12:37:34.949Z,16.00
2023-03-07T12:40:05.670Z,11.37
2023-03-07T12:42:38.322Z,16.03
2023-03-07T12:45:11.231Z,15.37
2023-03-07T12:47:57.123Z,12.53
2023-03-07T12:50:31.023Z,14.07
2023-03-07T12:53:05.219Z,13.73
2023-03-07T12:55:38.702Z,16.20
2023-03-07T12:58:13.319Z,13.57
2023-03-07T13:00:48.039Z,14.00
2023-03-07T13:03:24.518Z,10.30
2023-03-07T13:05:52.970Z,14.80
2023-03-07T13:08:24.782Z,15.83
2023-03-07T13:10:53.264Z,16.27
2023-03-07T13:13:58.602Z,10.70
2023-03-07T13:16:45.815Z,15.83
2023-03-07T13:19:52.291Z,15.07
2023-03-07T13:23:00.051Z,14.43
2023-03-07T13:25:49.020Z,15.87
2023-03-07T13:28:51.707Z,13.37
2023-03-07T13:31:46.204Z,12.33
2023-03-07T13:34:56.083Z,13.27
2023-03-07T13:37:53.768Z,17.67
2023-03-07T13:40:50.960Z,17.10
2023-03-07T13:44:02.345Z,17.53
2023-03-07T13:46:56.012Z,15.50
2023-03-07T13:49:49.128Z,16.40
2023-03-07T13:52:39.280Z,13.17
2023-03-07T13:55:25.942Z,20.07
2023-03-07T13:57:58.546Z,20.13
2023-03-07T14:00:38.361Z,19.57
2023-03-07T14:03:26.506Z,19.23
2023-03-07T14:05:56.358Z,16.63
2023-03-07T14:08:29.474Z,17.93
2023-03-07T14:10:59.086Z,16.10
2023-03-07T14:13:55.401Z,18.90
2023-03-07T14:16:47.288Z,12.70
2023-03-07T14:19:26.122Z,20.80
2023-03-07T14:22:00.885Z,14.97
2023-03-07T14:24:41.847Z,20.13
2023-03-07T14:27:16.510Z,21.10
2023-03-07T14:29:52.178Z,18.73
2023-03-07T14:32:23.312Z,14.37
2023-03-07T14:34:53.261Z,18.67
2023-03-07T14:37:26.471Z,18.37
2023-03-07T14:40:20.322Z,19.33
2023-03-07T14:42:58.058Z,17.33
2023-03-07T14:45:32.467Z,13.53
2023-03-07T14:48:32.309Z,17.53
2023-03-07T14:51:11.863Z,19.63
2023-03-07T14:53:40.249Z,18.13
2023-03-07T14:56:09.529Z,18.17
2023-03-07T14:58:48.945Z,20.93
2023-03-07T15:01:20.276Z,13.90
2023-03-07T15:03:49.487Z,18.90
2023-03-07T15:06:19.998Z,17.53
2023-03-07T15:08:49.475Z,19.37
2023-03-07T15:11:27.362Z,30.13
2023-03-07T15:14:00.844Z,15.83
2023-03-07T15:16:32.470Z,13.07
2023-03-07T15:19:05.044Z,26.10
2023-03-07T15:21:38.264Z,43.47
2023-03-07T15:24:06.869Z,32.63
2023-03-07T15:26:35.458Z,50.13
2023-03-07T15:29:10.220Z,21.20
2023-03-07T15:31:51.484Z,47.37
2023-03-07T15:34:25.111Z,55.13
2023-03-07T15:36:53.605Z,30.43
2023-03-07T15:39:33.194Z,47.37
2023-03-07T15:42:03.582Z,123.37
2023-03-07T15:44:33.600Z,21.87
2023-03-07T15:47:07.284Z,15.80
2023-03-07T15:49:42.068Z,11.70
2023-03-07T15:52:28.040Z,21.77
2023-03-07T15:54:58.144Z,10.60
2023-03-07T15:57:28.418Z,20.07
2023-03-07T16:00:00.227Z,19.60
2023-03-07T16:02:44.763Z,14.50
2023-03-07T16:05:36.098Z,16.20
2023-03-07T16:08:04.672Z,18.17
2023-03-07T16:10:33.102Z,17.47
2023-03-07T16:13:02.786Z,14.70
2023-03-07T16:15:32.619Z,10.77
2023-03-07T16:18:01.240Z,17.60
2023-03-07T16:20:29.999Z,6.97
2023-03-07T16:22:58.414Z,6.07
2023-03-07T16:25:29.661Z,15.07
2023-03-07T16:27:59.881Z,9.33
2023-03-07T16:30:29.768Z,9.33
2023-03-07T16:32:59.159Z,8.53
2023-03-07T16:35:29.076Z,16.57
2023-03-07T16:37:57.695Z,12.07
2023-03-07T16:40:27.045Z,10.77
2023-03-07T16:42:56.342Z,10.17
2023-03-07T16:45:27.765Z,11.57
2023-03-07T16:47:58.557Z,5.10
2023-03-07T16:50:28.208Z,13.77
2023-03-07T16:52:56.314Z,13.63
2023-03-07T16:55:25.047Z,11.37
2023-03-07T16:57:57.495Z,11.53
2023-03-07T17:00:27.033Z,9.30
2023-03-07T17:02:57.968Z,9.20
2023-03-07T17:05:30.008Z,8.73
2023-03-07T17:07:59.922Z,8.70
2023-03-07T17:10:28.973Z,8.83
2023-03-07T17:12:58.549Z,8.10
2023-03-07T17:15:30.845Z,8.57
2023-03-07T17:18:00.155Z,7.53
2023-03-07T17:20:30.068Z,8.00
2023-03-07T17:22:58.412Z,8.73
2023-03-07T17:25:27.313Z,7.63
2023-03-07T17:27:59.038Z,7.20
2023-03-07T17:30:29.815Z,8.17
2023-03-07T17:32:58.568Z,7.60
2023-03-07T17:35:28.162Z,6.03
2023-03-07T17:37:57.803Z,6.87
2023-03-07T17:40:25.894Z,5.90
2023-03-07T17:42:55.462Z,5.23
2023-03-07T17:45:24.264Z,6.27
2023-03-07T17:47:54.146Z,5.33
2023-03-07T17:50:24.610Z,5.53
2023-03-07T17:52:53.311Z,5.70
2023-03-07T17:55:25.010Z,5.60
2023-03-07T17:57:53.811Z,5.30
2023-03-07T18:00:23.028Z,3.90
2023-03-07T18:02:51.357Z,5.40
2023-03-07T18:05:20.276Z,5.07
2023-03-07T18:07:51.507Z,7.07
2023-03-07T18:10:19.983Z,20.53
2023-03-07T18:12:50.676Z,7.57
2023-03-07T18:15:21.787Z,4.77
2023-03-07T18:17:50.590Z,3.80
2023-03-07T18:20:19.769Z,19.53
2023-03-07T18:22:48.426Z,5.13
2023-03-07T18:25:18.627Z,4.77
2023-03-07T18:27:47.524Z,5.37
2023-03-07T18:30:17.822Z,4.70
2023-03-07T18:32:46.295Z,5.67
2023-03-07T18:35:16.713Z,4.57
2023-03-07T18:37:45.496Z,4.50
2023-03-07T18:40:14.571Z,4.83
2023-03-07T18:42:43.494Z,5.10
2023-03-07T18:45:12.610Z,4.00
2023-03-07T18:47:42.094Z,4.03
2023-03-07T18:50:11.866Z,2.90
2023-03-07T18:52:40.259Z,6.23
2023-03-07T18:55:09.035Z,5.63
2023-03-07T18:57:37.613Z,6.20
2023-03-07T19:00:06.978Z,4.63
2023-03-07T19:02:35.361Z,6.13
2023-03-07T19:05:05.055Z,6.07
2023-03-07T19:07:33.526Z,3.40
2023-03-07T19:10:01.906Z,4.57
2023-03-07T19:12:30.300Z,4.33
2023-03-07T19:14:58.640Z,5.20
2023-03-07T19:17:27.042Z,5.07
2023-03-07T19:19:59.270Z,4.80
2023-03-07T19:22:31.601Z,4.97
2023-03-07T19:25:00.019Z,5.47
2023-03-07T19:27:29.070Z,3.70
2023-03-07T19:29:57.423Z,5.23
2023-03-07T19:32:25.884Z,4.90
2023-03-07T19:34:55.497Z,5.33
2023-03-07T19:37:26.301Z,5.43
2023-03-07T19:39:56.021Z,4.97
2023-03-07T19:42:24.902Z,3.93
2023-03-07T19:44:53.561Z,5.00
2023-03-07T19:47:22.017Z,4.93
2023-03-07T19:49:50.396Z,5.10
2023-03-07T19:52:18.764Z,5.10
2023-03-07T19:54:47.110Z,5.33
2023-03-07T19:57:16.874Z,4.37
2023-03-07T19:59:45.554Z,5.37
2023-03-07T20:02:14.890Z,5.27
2023-03-07T20:04:43.188Z,5.60
2023-03-07T20:07:11.588Z,5.60
2023-03-07T20:09:39.947Z,4.97
2023-03-07T20:12:10.142Z,5.20
2023-03-07T20:14:42.914Z,6.00
2023-03-07T20:17:11.709Z,4.83
2023-03-07T20:19:40.147Z,7.88
2023-03-07T20:22:08.758Z,5.80
2023-03-07T20:24:37.162Z,6.43
2023-03-07T20:27:05.548Z,4.50
2023-03-07T20:29:33.946Z,6.30
2023-03-07T20:32:03.589Z,6.17
2023-03-07T20:34:32.008Z,7.87
2023-03-07T20:37:00.291Z,6.27
2023-03-07T20:39:28.658Z,5.83
2023-03-07T20:41:57.079Z,5.67
2023-03-07T20:44:25.402Z,5.33
2023-03-07T20:46:54.144Z,5.57
2023-03-07T20:49:23.560Z,5.87
2023-03-07T20:51:52.015Z,6.30
2023-03-07T20:54:20.360Z,6.23
2023-03-07T20:56:49.043Z,6.37
2023-03-07T20:59:19.429Z,5.83
2023-03-07T21:01:48.818Z,5.10
2023-03-07T21:04:18.579Z,5.60
2023-03-07T21:06:49.453Z,3.97
2023-03-07T21:09:18.968Z,6.10
2023-03-07T21:11:49.082Z,4.10
2023-03-07T21:14:18.308Z,4.73
2023-03-07T21:16:46.698Z,5.20
2023-03-07T21:19:15.391Z,6.17
2023-03-07T21:21:44.119Z,6.87
2023-03-07T21:24:15.513Z,6.23
2023-03-07T21:26:44.068Z,6.47
2023-03-07T21:29:13.960Z,4.60
2023-03-07T21:31:42.432Z,4.90
2023-03-07T21:34:14.062Z,5.67
2023-03-07T21:36:42.476Z,4.53
2023-03-07T21:39:10.918Z,5.37
2023-03-07T21:41:40.954Z,5.77
2023-03-07T21:44:09.536Z,5.57
2023-03-07T21:46:38.180Z,5.80
2023-03-07T21:49:06.660Z,6.43
2023-03-07T21:51:35.004Z,5.77
2023-03-07T21:54:03.536Z,6.47
2023-03-07T21:56:32.076Z,5.53
2023-03-07T21:59:01.863Z,5.63
2023-03-07T22:01:30.677Z,5.93
2023-03-07T22:04:00.351Z,6.07
2023-03-07T22:06:29.257Z,6.23
2023-03-07T22:08:57.786Z,5.87
2023-03-07T22:11:26.233Z,6.37
2023-03-07T22:13:54.597Z,6.17
2023-03-07T22:16:24.062Z,6.53
2023-03-07T22:18:56.814Z,5.43
2023-03-07T22:21:26.654Z,6.27
2023-03-07T22:23:58.177Z,5.50
2023-03-07T22:26:26.995Z,5.97
2023-03-07T22:28:55.729Z,5.63
2023-03-07T22:31:25.837Z,6.00
2023-03-07T22:33:54.290Z,7.03
2023-03-07T22:36:23.136Z,6.20
2023-03-07T22:38:55.333Z,6.10
2023-03-07T22:41:24.104Z,7.10
2023-03-07T22:43:52.663Z,6.43
2023-03-07T22:46:21.606Z,5.33
2023-03-07T22:48:53.469Z,6.03
2023-03-07T22:51:21.940Z,6.00
2023-03-07T22:53:50.229Z,6.13
2023-03-07T22:56:19.918Z,7.10
2023-03-07T22:58:48.207Z,7.17
2023-03-07T23:01:20.200Z,5.67
2023-03-07T23:03:48.961Z,6.83
2023-03-07T23:06:19.202Z,5.93
2023-03-07T23:08:48.619Z,6.17
2023-03-07T23:11:18.335Z,6.07
2023-03-07T23:13:46.985Z,6.00
2023-03-07T23:16:17.707Z,6.10
2023-03-07T23:18:46.974Z,6.73
2023-03-07T23:21:16.647Z,6.20
2023-03-07T23:23:46.209Z,6.20
2023-03-07T23:26:19.365Z,7.27
2023-03-07T23:28:47.763Z,6.33
2023-03-07T23:31:20.386Z,6.47
2023-03-07T23:33:49.131Z,6.47
2023-03-07T23:36:18.214Z,5.87
2023-03-07T23:38:47.891Z,5.47
2023-03-07T23:41:16.592Z,6.60
2023-03-07T23:43:46.338Z,6.37
2023-03-07T23:46:14.840Z,5.57
2023-03-07T23:48:43.522Z,6.80
2023-03-07T23:51:12.155Z,7.43
2023-03-07T23:53:40.775Z,7.10
2023-03-07T23:56:11.331Z,6.97
2023-03-07T23:58:39.835Z,5.90
